Time;durP1;ratioP1;P1;durP2;ratioP2;P2;SDS_P1;SDS_P2;PMS_P1;PMS_P2;Temp;Humidity;BMP_temperature;BMP_pressure;BME280_temperature;BME280_humidity;BME280_pressure;Samples;Min_cycle;Max_cycle;Signal;HPM_P1;HPM_P2
2023/01/09 00:01:25;;;;;;;1.20;0.00;;;7.20;99.90;;;;;;5027280;28;20026;-80
2023/01/09 00:03:50;;;;;;;3.50;0.00;;;7.10;99.90;;;;;;5026816;28;20033;-80
2023/01/09 00:06:16;;;;;;;0.70;0.00;;;7.10;99.90;;;;;;5028690;28;20461;-80
2023/01/09 00:08:42;;;;;;;3.97;0.03;;;7.10;99.90;;;;;;5026960;28;20053;-81
2023/01/09 00:11:11;;;;;;;0.20;0.15;;;;;;;;;;5026405;28;20045;-81
2023/01/09 00:13:37;;;;;;;;;;;4.30;99.90;;;;;;5022277;28;20054;-80
2023/01/09 00:16:04;;;;;;;2.28;0.45;;;7.10;99.90;;;;;;5026780;28;19912;-80
2023/01/09 00:18:30;;;;;;;2.17;0.00;;;7.10;99.90;;;;;;5026461;28;20034;-80
2023/01/09 00:20:59;;;;;;;3.53;0.10;;;7.00;99.90;;;;;;5027889;28;20109;-80
2023/01/09 00:23:25;;;;;;;1.50;0.00;;;6.90;99.90;;;;;;5028973;28;20105;-80
2023/01/09 00:26:13;;;;;;;1.10;0.00;;;6.90;99.90;;;;;;5027388;28;20021;-79
2023/01/09 00:28:39;;;;;;;1.45;0.45;;;7.00;99.90;;;;;;5027949;28;20079;-80
2023/01/09 00:31:08;;;;;;;0.63;0.00;;;6.90;99.90;;;;;;5026728;28;20038;-80
2023/01/09 00:33:43;;;;;;;1.40;0.00;;;6.90;99.90;;;;;;5027956;28;20030;-80
2023/01/09 00:36:09;;;;;;;0.85;0.10;;;6.80;99.90;;;;;;5026986;28;20032;-81
2023/01/09 00:38:38;;;;;;;2.15;0.10;;;6.80;99.90;;;;;;5028840;28;20026;-80
2023/01/09 00:41:11;;;;;;;3.28;0.35;;;6.80;99.90;;;;;;5025543;28;20406;-80
2023/01/09 00:43:47;;;;;;;2.05;0.00;;;6.80;99.90;;;;;;5026907;28;20065;-80
2023/01/09 00:46:14;;;;;;;3.22;0.52;;;6.80;99.90;;;;;;5025880;28;20072;-81
2023/01/09 00:48:42;;;;;;;0.75;0.00;;;6.70;99.90;;;;;;5026044;28;20026;-80
2023/01/09 00:51:08;;;;;;;2.28;0.15;;;9.20;99.90;;;;;;5026058;28;20440;-80
2023/01/09 00:53:36;;;;;;;3.50;0.00;;;6.70;99.90;;;;;;5025524;28;20075;-80
2023/01/09 00:56:06;;;;;;;3.63;0.10;;;8.60;99.90;;;;;;5024345;28;20408;-80
2023/01/09 00:58:36;;;;;;;1.08;0.00;;;6.60;99.90;;;;;;5025348;28;20018;-80
2023/01/09 01:01:02;;;;;;;2.17;0.43;;;6.50;99.90;;;;;;5025593;28;20026;-80
2023/01/09 01:03:28;;;;;;;5.85;0.75;;;6.40;99.90;;;;;;5025873;28;20025;-80
2023/01/09 01:08:38;;;;;;;1.42;0.17;;;6.50;99.90;;;;;;5027618;28;20098;-80
2023/01/09 01:11:11;;;;;;;2.55;0.00;;;6.50;99.90;;;;;;5026083;28;20017;-80
2023/01/09 01:13:38;;;;;;;1.55;0.00;;;6.40;99.90;;;;;;5025324;28;20416;-80
2023/01/09 01:16:06;;;;;;;1.52;0.00;;;6.40;99.90;;;;;;5024378;28;20074;-80
2023/01/09 01:18:32;;;;;;;6.95;0.30;;;6.40;99.90;;;;;;5026373;28;20030;-80
2023/01/09 01:20:59;;;;;;;4.38;0.40;;;6.30;99.90;;;;;;5025426;28;20109;-80
2023/01/09 01:23:25;;;;;;;1.80;0.00;;;6.30;99.90;;;;;;5026940;28;20057;-81
2023/01/09 01:26:02;;;;;;;4.57;0.00;;;6.20;99.90;;;;;;5027405;28;20056;-81
2023/01/09 01:28:27;;;;;;;2.05;0.00;;;6.20;99.90;;;;;;5026137;28;20046;-81
2023/01/09 01:30:54;;;;;;;2.85;0.00;;;6.20;99.90;;;;;;5027475;28;20420;-81
2023/01/09 01:33:23;;;;;;;3.22;0.10;;;6.20;99.90;;;;;;5025970;28;20022;-81
2023/01/09 01:35:49;;;;;;;4.28;0.32;;;6.10;99.90;;;;;;5027275;28;20113;-81
2023/01/09 01:38:15;;;;;;;4.30;0.10;;;6.70;99.90;;;;;;5025961;28;20025;-81
2023/01/09 01:40:41;;;;;;;4.22;0.10;;;;;;;;;;5024452;28;20373;-81
2023/01/09 01:43:10;;;;;;;4.10;0.00;;;6.10;99.90;;;;;;5025927;28;20081;-80
2023/01/09 01:45:39;;;;;;;1.70;0.17;;;6.00;99.90;;;;;;5025352;28;20033;-81
2023/01/09 01:48:19;;;;;;;2.30;0.00;;;5.90;99.90;;;;;;5024457;28;20022;-81
2023/01/09 01:51:04;;;;;;;0.63;0.10;;;5.90;99.90;;;;;;5025355;28;20041;-81
2023/01/09 01:53:35;;;;;;;4.03;0.30;;;5.80;99.90;;;;;;5025400;28;20085;-80
2023/01/09 01:56:00;;;;;;;3.22;0.35;;;5.80;99.90;;;;;;5025660;28;20026;-81
2023/01/09 01:58:26;;;;;;;1.42;0.00;;;5.70;99.90;;;;;;5026137;28;20036;-81
2023/01/09 02:00:53;;;;;;;2.83;0.00;;;5.80;99.90;;;;;;5024141;28;20026;-80
2023/01/09 02:03:24;;;;;;;2.38;0.20;;;5.90;99.90;;;;;;5024781;28;20056;-81
2023/01/09 02:05:53;;;;;;;4.47;0.08;;;5.90;99.90;;;;;;5023466;28;20125;-81
2023/01/09 02:08:18;;;;;;;;;;;5.90;99.90;;;;;;5027630;28;20068;-81
2023/01/09 02:10:45;;;;;;;6.38;0.60;;;5.90;99.90;;;;;;5027986;28;19916;-80
2023/01/09 02:13:11;;;;;;;2.10;0.20;;;;;;;;;;5029638;28;20030;-81
2023/01/09 02:15:56;;;;;;;2.92;0.40;;;6.00;99.90;;;;;;5031313;28;20090;-80
2023/01/09 02:18:57;;;;;;;2.50;0.28;;;6.10;99.90;;;;;;5028868;28;20032;-81
2023/01/09 02:22:00;;;;;;;4.85;0.82;;;6.10;99.90;;;;;;5027470;28;20029;-81
2023/01/09 02:24:50;;;;;;;3.00;0.30;;;6.20;99.90;;;;;;5029047;28;20369;-81
2023/01/09 02:27:47;;;;;;;3.05;0.80;;;6.20;99.90;;;;;;5030406;28;20078;-81
2023/01/09 02:30:25;;;;;;;6.15;0.93;;;6.20;99.90;;;;;;5030492;28;20093;-81
2023/01/09 02:33:14;;;;;;;4.38;0.90;;;6.10;99.90;;;;;;5030061;28;20485;-81
2023/01/09 02:36:02;;;;;;;2.00;0.57;;;6.20;99.90;;;;;;5026735;28;20084;-80
2023/01/09 02:38:36;;;;;;;9.60;0.50;;;6.10;99.90;;;;;;5029308;28;20104;-80
2023/01/09 02:41:11;;;;;;;3.58;1.33;;;6.10;99.90;;;;;;5030818;28;20424;-80
2023/01/09 02:43:38;;;;;;;2.65;0.95;;;6.50;99.90;;;;;;5031529;28;20018;-79
2023/01/09 02:46:22;;;;;;;2.20;0.88;;;6.00;99.90;;;;;;5028908;28;20025;-80
2023/01/09 02:48:51;;;;;;;4.40;0.50;;;6.00;99.90;;;;;;5028369;28;20045;-80
2023/01/09 02:51:41;;;;;;;3.03;0.85;;;5.90;99.90;;;;;;5029209;28;20018;-80
2023/01/09 02:54:19;;;;;;;4.18;1.27;;;5.90;99.90;;;;;;5019144;28;20034;-80
2023/01/09 02:57:10;;;;;;;7.83;1.30;;;5.80;99.90;;;;;;5028363;28;20029;-80
2023/01/09 02:59:54;;;;;;;2.80;0.82;;;5.80;99.90;;;;;;5026965;28;20030;-80
2023/01/09 03:02:28;;;;;;;1.83;0.60;;;;;;;;;;5028954;28;20025;-80
2023/01/09 03:05:11;;;;;;;1.98;0.40;;;5.70;99.90;;;;;;5027285;28;20033;-80
2023/01/09 03:07:53;;;;;;;2.15;0.65;;;5.70;99.90;;;;;;5030213;28;20026;-81
2023/01/09 03:10:41;;;;;;;6.25;0.60;;;5.60;99.90;;;;;;5028157;28;20040;-80
2023/01/09 03:13:11;;;;;;;3.35;0.60;;;5.60;99.90;;;;;;5015407;28;20034;-80
2023/01/09 03:15:41;;;;;;;2.65;0.77;;;5.50;99.90;;;;;;5026739;28;20025;-80
2023/01/09 03:18:09;;;;;;;4.13;0.63;;;5.60;99.90;;;;;;5025671;28;20053;-80
2023/01/09 03:20:36;;;;;;;1.33;0.40;;;5.50;99.90;;;;;;5024735;28;20461;-80
2023/01/09 03:23:05;;;;;;;6.90;0.93;;;8.30;99.90;;;;;;5025873;28;20022;-80
2023/01/09 03:25:31;;;;;;;;;;;5.50;99.90;;;;;;5026398;28;20054;-80
2023/01/09 03:28:03;;;;;;;3.72;0.40;;;5.30;99.90;;;;;;5026769;28;19928;-80
2023/01/09 03:30:31;;;;;;;3.13;0.98;;;4.20;99.90;;;;;;5025203;28;20032;-80
2023/01/09 03:33:02;;;;;;;0.85;0.30;;;5.40;99.90;;;;;;5023949;28;20499;-80
2023/01/09 03:35:28;;;;;;;3.90;0.77;;;5.20;99.90;;;;;;5019738;28;20094;-80
2023/01/09 03:37:54;;;;;;;1.77;0.43;;;5.40;99.90;;;;;;5020955;28;20075;-81
2023/01/09 03:40:22;;;;;;;3.63;1.00;;;5.30;99.90;;;;;;5022779;28;20022;-80
2023/01/09 03:42:48;;;;;;;2.08;0.30;;;5.30;99.90;;;;;;5016752;28;20022;-80
2023/01/09 03:45:13;;;;;;;4.65;1.42;;;5.30;99.90;;;;;;5018488;28;20358;-80
2023/01/09 03:47:45;;;;;;;4.30;0.50;;;;;;;;;;5021465;28;20040;-80
2023/01/09 03:50:11;;;;;;;4.15;0.47;;;5.20;99.90;;;;;;5021501;28;20034;-80
2023/01/09 03:52:40;;;;;;;2.85;0.68;;;5.20;99.90;;;;;;5018754;28;20068;-80
2023/01/09 03:55:08;;;;;;;3.50;0.40;;;5.10;99.90;;;;;;5018313;28;20025;-79
2023/01/09 03:57:36;;;;;;;3.10;0.30;;;5.10;99.90;;;;;;5018179;28;20117;-79
2023/01/09 04:00:03;;;;;;;4.07;0.57;;;5.10;99.90;;;;;;5019606;28;20034;-80
2023/01/09 04:02:28;;;;;;;3.17;0.40;;;5.10;99.90;;;;;;5018663;28;20028;-80
2023/01/09 04:04:54;;;;;;;3.38;0.70;;;5.10;99.90;;;;;;5017408;28;20045;-80
2023/01/09 04:07:23;;;;;;;2.38;0.45;;;5.20;99.90;;;;;;5016552;28;20477;-80
2023/01/09 04:09:48;;;;;;;12.75;1.35;;;5.10;99.90;;;;;;5015797;28;20037;-80
2023/01/09 04:12:14;;;;;;;5.03;1.20;;;5.10;99.90;;;;;;5017958;28;20026;-80
2023/01/09 04:14:40;;;;;;;3.08;0.20;;;;;;;;;;5016961;28;20006;-81
2023/01/09 04:17:08;;;;;;;4.32;0.55;;;5.10;99.90;;;;;;5016282;28;20029;-80
2023/01/09 04:19:34;;;;;;;2.28;0.47;;;5.10;99.90;;;;;;5015819;28;20030;-80
2023/01/09 04:21:59;;;;;;;1.25;0.43;;;5.00;99.90;;;;;;5015945;28;20033;-80
2023/01/09 04:24:27;;;;;;;4.53;0.40;;;;;;;;;;5016028;28;20030;-80
2023/01/09 04:26:55;;;;;;;3.35;0.45;;;5.10;99.90;;;;;;5016107;28;20108;-80
2023/01/09 04:29:21;;;;;;;6.88;0.13;;;;;;;;;;5017013;28;20022;-81
2023/01/09 04:31:47;;;;;;;3.65;0.30;;;5.10;99.90;;;;;;5017063;28;20029;-80
2023/01/09 04:34:15;;;;;;;3.72;0.63;;;5.20;99.90;;;;;;5017309;28;20018;-80
2023/01/09 04:36:41;;;;;;;1.85;0.28;;;5.10;99.90;;;;;;5016849;28;20496;-80
2023/01/09 04:39:10;;;;;;;3.95;0.25;;;5.20;99.90;;;;;;5015949;28;20060;-81
2023/01/09 04:41:47;;;;;;;3.35;0.20;;;5.10;99.90;;;;;;5016134;28;20022;-80
2023/01/09 04:44:14;;;;;;;3.80;0.93;;;5.30;99.90;;;;;;5017667;28;20021;-80
2023/01/09 04:46:40;;;;;;;6.68;0.10;;;5.30;99.90;;;;;;5017561;28;20037;-81
2023/01/09 04:49:06;;;;;;;2.25;0.10;;;;;;;;;;5015886;28;20465;-81
2023/01/09 04:51:32;;;;;;;1.30;0.00;;;5.30;99.90;;;;;;5017108;28;20057;-80
2023/01/09 04:53:57;;;;;;;3.42;0.20;;;6.90;99.90;;;;;;5016010;28;20030;-80
2023/01/09 04:56:25;;;;;;;3.00;0.20;;;5.40;99.90;;;;;;5014515;28;20018;-80
2023/01/09 04:58:51;;;;;;;3.27;0.07;;;;;;;;;;5015128;28;20068;-80
2023/01/09 05:01:17;;;;;;;1.50;0.05;;;5.50;99.90;;;;;;5015229;28;20268;-81
2023/01/09 05:03:43;;;;;;;1.95;0.10;;;5.50;99.90;;;;;;5014010;28;20030;-80
2023/01/09 05:06:08;;;;;;;2.22;0.20;;;5.60;99.90;;;;;;5013831;28;20126;-80
2023/01/09 05:08:34;;;;;;;3.38;0.40;;;5.60;99.90;;;;;;5013435;28;20116;-80
2023/01/09 05:10:59;;;;;;;4.80;0.20;;;5.60;99.90;;;;;;5015079;28;20030;-80
2023/01/09 05:13:25;;;;;;;1.52;0.52;;;5.70;99.90;;;;;;5013678;28;20014;-80
2023/01/09 05:15:51;;;;;;;2.88;0.10;;;;;;;;;;5014032;28;20109;-80
2023/01/09 05:18:17;;;;;;;4.88;0.00;;;5.70;99.90;;;;;;5014947;28;20495;-81
2023/01/09 05:20:42;;;;;;;4.15;0.52;;;;;;;;;;5015863;28;20022;-81
2023/01/09 05:23:08;;;;;;;2.30;0.05;;;5.80;99.90;;;;;;5014746;28;20056;-80
2023/01/09 05:25:34;;;;;;;4.93;0.10;;;8.00;99.90;;;;;;5013947;28;20018;-81
2023/01/09 05:28:00;;;;;;;3.03;0.38;;;8.20;99.90;;;;;;5014596;28;20077;-80
2023/01/09 05:30:28;;;;;;;3.17;0.30;;;5.90;99.90;;;;;;5017544;28;20025;-81
2023/01/09 05:32:56;;;;;;;4.70;0.30;;;5.90;99.90;;;;;;5020117;28;20385;-80
2023/01/09 05:35:22;;;;;;;0.85;0.10;;;8.80;99.90;;;;;;5019998;28;20022;-81
2023/01/09 05:37:48;;;;;;;2.70;0.20;;;5.90;99.90;;;;;;5023924;28;20105;-81
2023/01/09 05:40:19;;;;;;;4.75;0.08;;;5.90;99.90;;;;;;5019962;28;20121;-81
2023/01/09 05:42:45;;;;;;;6.38;0.22;;;5.90;99.90;;;;;;5016841;28;20485;-79
2023/01/09 05:45:11;;;;;;;4.38;0.30;;;5.90;99.90;;;;;;5015838;28;20113;-79
2023/01/09 05:47:44;;;;;;;2.50;0.10;;;5.90;99.90;;;;;;5015027;28;20026;-80
2023/01/09 05:50:10;;;;;;;2.80;0.00;;;6.00;99.90;;;;;;5012978;28;20022;-79
2023/01/09 05:52:36;;;;;;;2.60;0.13;;;6.00;99.90;;;;;;5014950;28;20021;-79
2023/01/09 05:55:05;;;;;;;1.80;0.00;;;6.00;99.90;;;;;;5013034;28;20018;-79
2023/01/09 05:57:31;;;;;;;;;;;7.70;99.90;;;;;;5013789;28;20040;-79
2023/01/09 05:59:56;;;;;;;1.95;0.03;;;6.10;99.90;;;;;;5013820;28;19937;-79
2023/01/09 06:02:22;;;;;;;2.67;0.00;;;6.10;99.90;;;;;;5014025;28;20038;-79
2023/01/09 06:04:53;;;;;;;1.33;0.10;;;6.00;99.90;;;;;;5015721;28;20045;-79
2023/01/09 06:07:24;;;;;;;7.88;0.10;;;6.10;99.90;;;;;;5014916;28;20026;-78
2023/01/09 06:09:49;;;;;;;2.63;0.30;;;6.10;99.90;;;;;;5013370;28;20041;-79
2023/01/09 06:12:18;;;;;;;1.73;0.10;;;6.10;99.90;;;;;;5016174;28;20381;-78
2023/01/09 06:14:44;;;;;;;1.88;0.05;;;6.10;99.90;;;;;;5013844;28;20018;-78
2023/01/09 06:17:12;;;;;;;6.03;0.30;;;6.10;99.90;;;;;;5015793;28;20033;-79
2023/01/09 06:19:38;;;;;;;1.55;0.03;;;6.10;99.90;;;;;;5013886;28;20030;-80
2023/01/09 06:22:03;;;;;;;1.70;0.00;;;6.20;99.90;;;;;;5014493;28;20129;-79
2023/01/09 06:24:32;;;;;;;6.22;0.40;;;6.10;99.90;;;;;;5014041;28;20114;-80
2023/01/09 06:26:57;;;;;;;3.47;0.10;;;6.70;99.90;;;;;;5013849;28;20088;-79
2023/01/09 06:29:23;;;;;;;3.65;0.13;;;6.20;99.90;;;;;;5014346;28;20026;-78
2023/01/09 06:31:49;;;;;;;2.55;0.00;;;;;;;;;;5013799;28;20503;-79
2023/01/09 06:34:15;;;;;;;3.53;0.10;;;;;;;;;;5015076;28;20052;-79
2023/01/09 06:36:41;;;;;;;1.52;0.05;;;6.30;99.90;;;;;;5012887;28;20026;-79
2023/01/09 06:39:09;;;;;;;3.75;0.00;;;6.30;99.90;;;;;;5012846;28;20026;-79
2023/01/09 06:41:36;;;;;;;3.97;0.50;;;6.30;99.90;;;;;;5013123;28;20097;-79
2023/01/09 06:44:01;;;;;;;3.88;0.60;;;6.30;99.90;;;;;;5012978;28;20022;-79
2023/01/09 06:46:30;;;;;;;1.92;0.10;;;;;;;;;;5012601;28;20022;-79
2023/01/09 06:48:59;;;;;;;8.75;0.52;;;6.30;99.90;;;;;;5013198;28;20396;-79
2023/01/09 06:51:25;;;;;;;;;;;6.30;99.90;;;;;;5013431;28;20393;-79
2023/01/09 06:53:51;;;;;;;7.90;0.55;;;6.40;99.90;;;;;;5014609;28;19917;-79
2023/01/09 06:56:17;;;;;;;3.92;0.10;;;6.40;99.90;;;;;;5017065;28;20499;-79
2023/01/09 06:58:42;;;;;;;1.85;0.13;;;6.40;99.90;;;;;;5018763;28;20104;-79
2023/01/09 07:01:08;;;;;;;2.00;0.13;;;6.40;99.90;;;;;;5017147;28;20076;-79
2023/01/09 07:03:33;;;;;;;8.85;0.80;;;6.40;99.90;;;;;;5018823;28;20026;-80
2023/01/09 07:05:59;;;;;;;6.53;0.10;;;6.40;99.90;;;;;;5017894;28;20082;-80
2023/01/09 07:08:24;;;;;;;5.20;0.35;;;6.40;99.90;;;;;;5017366;28;20493;-80
2023/01/09 07:10:50;;;;;;;5.25;0.63;;;6.40;99.90;;;;;;5017322;28;20064;-80
2023/01/09 07:13:15;;;;;;;3.22;0.10;;;6.50;99.90;;;;;;5017761;28;20072;-79
2023/01/09 07:15:44;;;;;;;8.52;0.32;;;6.50;99.90;;;;;;5018159;28;20025;-80
2023/01/09 07:18:10;;;;;;;5.13;0.20;;;6.40;99.90;;;;;;5017951;28;20022;-80
2023/01/09 07:20:39;;;;;;;5.85;0.50;;;6.50;99.90;;;;;;5017007;28;20026;-79
2023/01/09 07:23:05;;;;;;;5.28;0.40;;;6.50;99.90;;;;;;5016321;28;20090;-79
2023/01/09 07:25:30;;;;;;;4.35;0.75;;;6.50;99.90;;;;;;5016789;28;20108;-78
2023/01/09 07:27:56;;;;;;;4.40;0.85;;;6.40;99.90;;;;;;5017141;28;20029;-79
2023/01/09 07:30:21;;;;;;;3.08;0.47;;;6.40;99.90;;;;;;5017547;28;20032;-79
2023/01/09 07:32:47;;;;;;;2.78;0.63;;;6.50;99.90;;;;;;5016587;28;20389;-79
2023/01/09 07:35:13;;;;;;;3.67;0.35;;;6.50;99.90;;;;;;5018362;28;20080;-79
2023/01/09 07:37:38;;;;;;;2.88;0.35;;;6.50;99.90;;;;;;5016901;28;20060;-78
2023/01/09 07:40:04;;;;;;;2.20;0.40;;;6.50;99.90;;;;;;5016874;28;20026;-79
2023/01/09 07:42:30;;;;;;;4.25;0.75;;;6.60;99.90;;;;;;5018539;28;20235;-79
2023/01/09 07:44:56;;;;;;;2.15;0.75;;;6.60;99.90;;;;;;5016260;28;20481;-78
2023/01/09 07:47:21;;;;;;;4.78;0.43;;;6.70;99.90;;;;;;5017457;28;20037;-78
2023/01/09 07:49:47;;;;;;;5.45;0.95;;;6.70;99.90;;;;;;5015311;28;20022;-79
2023/01/09 07:52:13;;;;;;;4.28;0.73;;;6.70;99.90;;;;;;5015219;28;20025;-79
2023/01/09 07:54:39;;;;;;;6.43;0.82;;;6.70;99.90;;;;;;5015742;28;20133;-79
2023/01/09 07:57:04;;;;;;;2.05;0.45;;;6.70;99.90;;;;;;5015646;28;20030;-79
2023/01/09 07:59:30;;;;;;;1.65;0.20;;;6.70;99.90;;;;;;5015622;28;20104;-79
2023/01/09 08:01:56;;;;;;;3.15;0.63;;;6.80;99.90;;;;;;5015422;28;20032;-79
2023/01/09 08:04:22;;;;;;;1.90;0.22;;;6.80;99.90;;;;;;5015405;28;20068;-79
2023/01/09 08:06:47;;;;;;;4.53;0.25;;;6.80;99.90;;;;;;5015254;28;20025;-79
2023/01/09 08:09:13;;;;;;;4.97;0.20;;;6.80;99.90;;;;;;5016988;28;20041;-79
2023/01/09 08:11:40;;;;;;;4.00;0.30;;;6.80;99.90;;;;;;5015086;28;20026;-79
2023/01/09 08:14:05;;;;;;;2.53;0.10;;;6.80;99.90;;;;;;5015678;28;20052;-79
2023/01/09 08:16:31;;;;;;;5.03;0.17;;;6.70;99.90;;;;;;5015316;28;20477;-79
2023/01/09 08:18:56;;;;;;;10.27;0.45;;;6.70;99.90;;;;;;5016549;28;20026;-79
2023/01/09 08:21:22;;;;;;;2.85;0.10;;;6.70;99.90;;;;;;5016622;28;20032;-78
2023/01/09 08:23:47;;;;;;;1.75;0.00;;;6.70;99.90;;;;;;5016270;28;20574;-79
2023/01/09 08:26:13;;;;;;;0.52;0.30;;;6.80;99.90;;;;;;5015711;28;20034;-79
2023/01/09 08:28:38;;;;;;;1.27;0.00;;;6.80;99.90;;;;;;5015707;28;20026;-79
2023/01/09 08:31:04;;;;;;;2.22;0.00;;;6.80;99.90;;;;;;5014431;28;20022;-78
2023/01/09 08:33:31;;;;;;;3.80;0.13;;;6.80;99.90;;;;;;5015500;28;20093;-79
2023/01/09 08:36:00;;;;;;;1.70;0.00;;;6.80;99.90;;;;;;5014622;28;20017;-78
2023/01/09 08:38:25;;;;;;;2.75;0.00;;;6.80;99.90;;;;;;5015288;28;20101;-78
2023/01/09 08:40:51;;;;;;;2.78;0.00;;;6.80;99.90;;;;;;5013882;28;20504;-78
2023/01/09 08:48:46;;;;;;;0.55;0.00;;;6.80;99.90;;;;;;5016039;28;20508;-79
2023/01/09 08:51:12;;;;;;;2.47;0.05;;;6.90;99.90;;;;;;5016360;28;20045;-79
2023/01/09 08:53:38;;;;;;;1.75;0.00;;;6.90;99.90;;;;;;5015998;28;20366;-78
2023/01/09 08:56:04;;;;;;;0.75;0.00;;;6.90;99.90;;;;;;5015263;28;20105;-79
2023/01/09 08:58:30;;;;;;;1.77;0.00;;;7.00;99.90;;;;;;5014823;28;20060;-78
2023/01/09 09:00:57;;;;;;;2.72;0.00;;;7.00;99.90;;;;;;5015643;28;20076;-79
2023/01/09 09:03:23;;;;;;;0.82;0.17;;;7.00;99.90;;;;;;5014401;28;20096;-79
2023/01/09 09:05:49;;;;;;;2.33;0.00;;;6.90;99.90;;;;;;5014247;28;20497;-79
2023/01/09 09:08:19;;;;;;;3.05;0.00;;;7.00;99.90;;;;;;5027026;23;20385;-78
2023/01/09 09:10:44;;;;;;;5.18;0.00;;;7.00;99.90;;;;;;5015349;28;20026;-79
2023/01/09 09:13:12;;;;;;;2.25;0.00;;;7.10;99.90;;;;;;5016439;28;20032;-79
2023/01/09 09:15:38;;;;;;;5.55;0.20;;;7.00;99.90;;;;;;5017517;28;20547;-79
2023/01/09 09:18:05;;;;;;;4.05;0.00;;;7.00;99.90;;;;;;5014375;28;20090;-79
2023/01/09 09:20:37;;;;;;;2.55;0.03;;;7.00;99.90;;;;;;5016743;28;20029;-78
2023/01/09 09:23:03;;;;;;;5.22;0.75;;;7.10;99.90;;;;;;5014614;28;20072;-79
2023/01/09 09:25:29;;;;;;;1.05;0.15;;;7.20;99.90;;;;;;5014553;28;20061;-78
2023/01/09 09:27:55;;;;;;;3.95;0.22;;;7.10;99.90;;;;;;5015890;28;20488;-78
2023/01/09 09:30:22;;;;;;;1.85;0.10;;;7.20;99.90;;;;;;5013794;28;20054;-78
2023/01/09 09:32:48;;;;;;;1.67;0.00;;;7.20;99.90;;;;;;5015946;28;20448;-78
2023/01/09 09:35:16;;;;;;;7.72;0.00;;;7.20;99.90;;;;;;5014590;28;20104;-78
2023/01/09 09:37:56;;;;;;;2.93;0.30;;;7.30;99.90;;;;;;5014687;28;20022;-79
2023/01/09 09:40:59;;;;;;;6.88;0.00;;;7.30;99.90;;;;;;5015366;28;20037;-79
2023/01/09 09:46:46;;;;;;;4.93;0.40;;;7.40;99.90;;;;;;5016581;28;20412;-78
2023/01/09 09:49:31;;;;;;;10.93;0.90;;;7.40;99.90;;;;;;5014906;28;20026;-78
2023/01/09 09:52:15;;;;;;;7.82;0.05;;;7.40;99.90;;;;;;5014730;28;20037;-79
2023/01/09 09:54:46;;;;;;;11.38;1.38;;;7.40;99.90;;;;;;5014688;28;20530;-78
2023/01/09 09:57:16;;;;;;;10.60;0.30;;;7.50;99.90;;;;;;5012630;28;20014;-78
2023/01/09 09:59:43;;;;;;;3.70;0.32;;;7.60;99.90;;;;;;5014231;28;20026;-78
2023/01/09 10:02:19;;;;;;;16.13;0.93;;;7.70;99.90;;;;;;5014555;28;20021;-78
2023/01/09 10:04:50;;;;;;;6.68;0.30;;;7.70;99.90;;;;;;5013557;28;20032;-78
2023/01/09 10:07:24;;;;;;;9.70;0.82;;;8.00;99.90;;;;;;5014074;28;20037;-78
2023/01/09 10:09:56;;;;;;;10.55;1.48;;;7.90;99.90;;;;;;5013758;28;20030;-78
2023/01/09 10:12:30;;;;;;;14.35;1.58;;;8.00;99.90;;;;;;5013074;28;20037;-78
2023/01/09 10:15:02;;;;;;;7.30;1.08;;;8.00;99.90;;;;;;5012611;28;20022;-78
2023/01/09 10:18:08;;;;;;;3.50;0.05;;;8.10;99.90;;;;;;5014232;28;20366;-78
2023/01/09 10:20:46;;;;;;;0.88;0.05;;;8.10;99.90;;;;;;5012512;28;20014;-78
2023/01/09 10:23:21;;;;;;;2.28;0.00;;;8.10;99.90;;;;;;5014084;28;20036;-78
2023/01/09 10:25:52;;;;;;;4.32;0.00;;;8.10;99.90;;;;;;5015083;28;20022;-77
2023/01/09 10:28:45;;;;;;;2.25;0.47;;;8.00;99.90;;;;;;5014527;28;20488;-78
2023/01/09 10:31:14;;;;;;;3.15;0.32;;;8.00;99.90;;;;;;5016353;28;20033;-77
2023/01/09 10:33:55;;;;;;;1.42;0.30;;;7.90;99.90;;;;;;5018775;28;20026;-77
2023/01/09 10:36:39;;;;;;;2.58;0.10;;;8.00;99.90;;;;;;5018136;28;20416;-77
2023/01/09 10:39:14;;;;;;;6.15;0.30;;;7.90;99.90;;;;;;5017786;28;20484;-78
2023/01/09 10:41:56;;;;;;;4.43;0.45;;;7.90;99.90;;;;;;5017944;28;20072;-78
2023/01/09 10:44:44;;;;;;;3.00;0.03;;;7.90;99.90;;;;;;5016613;28;20038;-77
2023/01/09 10:47:38;;;;;;;5.37;0.30;;;7.90;99.90;;;;;;5017919;28;20033;-78
2023/01/09 10:50:22;;;;;;;4.35;0.00;;;7.90;99.90;;;;;;5017985;28;20030;-78
2023/01/09 10:52:53;;;;;;;1.35;0.20;;;7.90;99.90;;;;;;5016491;28;20026;-78
2023/01/09 10:55:39;;;;;;;2.97;0.35;;;7.90;99.90;;;;;;5016738;28;20018;-78
2023/01/09 10:58:24;;;;;;;4.40;0.55;;;8.10;99.90;;;;;;5017325;28;20022;-78
2023/01/09 11:00:50;;;;;;;6.07;0.20;;;8.10;99.90;;;;;;5017515;28;20472;-78
2023/01/09 11:03:19;;;;;;;3.50;0.10;;;8.20;99.90;;;;;;5017177;28;20076;-78
2023/01/09 11:06:00;;;;;;;5.30;0.00;;;8.20;99.90;;;;;;5017003;28;20022;-78
2023/01/09 11:08:40;;;;;;;4.95;0.35;;;8.30;99.90;;;;;;5016850;28;20029;-78
2023/01/09 11:11:07;;;;;;;13.80;2.75;;;8.40;99.90;;;;;;5016156;28;20022;-77
2023/01/09 11:13:35;;;;;;;5.13;0.10;;;8.40;99.90;;;;;;5017130;28;20061;-77
2023/01/09 11:16:10;;;;;;;6.60;0.35;;;8.70;99.90;;;;;;5016158;28;20121;-77
2023/01/09 11:18:47;;;;;;;8.57;0.10;;;8.80;99.90;;;;;;5017124;28;20030;-77
2023/01/09 11:21:32;;;;;;;5.50;0.10;;;8.80;99.90;;;;;;5016031;28;20089;-77
2023/01/09 11:24:20;;;;;;;3.97;0.40;;;8.80;99.90;;;;;;5017161;28;20061;-77
2023/01/09 11:26:47;;;;;;;9.00;0.20;;;8.70;99.90;;;;;;5016379;28;20096;-77
2023/01/09 11:29:25;;;;;;;6.15;0.20;;;8.60;99.90;;;;;;5016642;28;20029;-78
2023/01/09 11:31:54;;;;;;;9.27;1.20;;;8.50;99.90;;;;;;5016155;28;20049;-77
2023/01/09 11:34:23;;;;;;;5.20;0.38;;;8.50;99.90;;;;;;5015288;28;20264;-77
2023/01/09 11:36:50;;;;;;;;;;;8.60;99.90;;;;;;5015242;28;20041;-77
2023/01/09 11:39:22;;;;;;;7.47;0.77;;;8.50;99.90;;;;;;5015223;28;20277;-77
2023/01/09 11:41:53;;;;;;;6.68;0.32;;;8.50;99.90;;;;;;5015285;28;20485;-77
2023/01/09 11:44:19;;;;;;;8.40;1.13;;;8.60;99.90;;;;;;5015232;28;20021;-77
2023/01/09 11:46:45;;;;;;;7.68;1.00;;;8.50;99.90;;;;;;5016168;28;20526;-77
2023/01/09 11:49:14;;;;;;;6.60;0.30;;;8.40;99.90;;;;;;5014964;28;20041;-77
2023/01/09 11:51:40;;;;;;;7.45;1.00;;;8.40;99.90;;;;;;5015110;28;20029;-77
2023/01/09 11:54:18;;;;;;;5.85;0.55;;;8.20;99.90;;;;;;5016025;28;20061;-77
2023/01/09 11:56:45;;;;;;;7.45;0.55;;;8.20;99.90;;;;;;5015166;28;20026;-77
2023/01/09 11:59:16;;;;;;;2.50;0.00;;;8.20;99.90;;;;;;5015998;28;20476;-77
2023/01/09 12:02:04;;;;;;;2.08;0.00;;;8.10;99.90;;;;;;5015896;28;20073;-78
2023/01/09 12:04:52;;;;;;;10.77;0.43;;;8.10;99.90;;;;;;5016147;28;20057;-77
2023/01/09 12:07:58;;;;;;;3.90;0.00;;;7.90;99.90;;;;;;5014313;28;20069;-77
2023/01/09 12:10:41;;;;;;;10.93;0.73;;;7.90;99.90;;;;;;5014506;28;20034;-77
2023/01/09 12:13:32;;;;;;;8.77;1.13;;;8.00;99.90;;;;;;5015999;28;20025;-77
2023/01/09 12:16:07;;;;;;;16.02;0.30;;;8.10;99.90;;;;;;5015573;28;20473;-78
2023/01/09 12:18:40;;;;;;;5.82;0.75;;;8.20;99.90;;;;;;5015322;28;20034;-77
2023/01/09 12:21:36;;;;;;;8.15;0.38;;;8.30;99.90;;;;;;5039364;23;20049;-77
2023/01/09 12:24:26;;;;;;;10.52;0.30;;;8.40;99.90;;;;;;5015395;28;20018;-77
2023/01/09 12:27:11;;;;;;;3.80;0.25;;;8.60;99.90;;;;;;5014911;28;20025;-77
2023/01/09 12:30:09;;;;;;;7.93;0.80;;;8.70;99.90;;;;;;5014272;28;20038;-77
2023/01/09 12:33:04;;;;;;;4.85;0.43;;;8.70;99.90;;;;;;5014209;28;20378;-78
2023/01/09 12:36:03;;;;;;;6.45;0.65;;;8.70;99.90;;;;;;5000142;28;20124;-78
2023/01/09 12:38:35;;;;;;;;;;;8.70;99.90;;;;;;4946235;28;20031;-79
2023/01/09 12:41:01;;;;;;;5.30;0.17;;;8.70;99.90;;;;;;5013709;28;20261;-78
2023/01/09 12:43:47;;;;;;;10.73;0.75;;;8.70;99.90;;;;;;5015413;28;20028;-78
2023/01/09 12:46:21;;;;;;;12.90;1.23;;;8.70;99.90;;;;;;5015741;28;20473;-78
2023/01/09 12:49:04;;;;;;;8.50;0.68;;;8.70;99.90;;;;;;5013969;28;20022;-78
2023/01/09 12:52:06;;;;;;;6.95;0.22;;;8.70;99.90;;;;;;5012773;28;20034;-78
2023/01/09 12:55:00;;;;;;;10.70;0.65;;;8.70;99.90;;;;;;5013744;28;20034;-77
2023/01/09 12:57:32;;;;;;;10.07;0.68;;;8.60;99.90;;;;;;5016589;28;20022;-79
2023/01/09 13:00:14;;;;;;;5.82;0.60;;;8.60;99.90;;;;;;5015998;28;20033;-79
2023/01/09 13:02:48;;;;;;;10.43;0.80;;;8.60;99.90;;;;;;5016130;28;20033;-79
2023/01/09 13:05:25;;;;;;;9.63;0.63;;;8.50;99.90;;;;;;5014484;28;20057;-79
2023/01/09 13:07:57;;;;;;;11.73;0.47;;;8.50;99.90;;;;;;5016350;28;20057;-79
2023/01/09 13:10:36;;;;;;;7.47;0.43;;;9.00;99.90;;;;;;5015220;28;20026;-78
2023/01/09 13:13:18;;;;;;;17.52;2.13;;;8.50;99.90;;;;;;5016242;28;20026;-78
2023/01/09 13:15:48;;;;;;;13.55;0.85;;;8.60;99.90;;;;;;5014768;28;20033;-77
2023/01/09 13:18:39;;;;;;;7.90;0.70;;;8.80;99.90;;;;;;5014722;28;20522;-77
2023/01/09 13:21:06;;;;;;;6.97;0.20;;;8.90;99.90;;;;;;5014236;28;20097;-79
2023/01/09 13:24:00;;;;;;;6.82;0.57;;;9.10;99.90;;;;;;5013685;28;20496;-79
2023/01/09 13:26:42;;;;;;;6.65;0.80;;;9.00;99.90;;;;;;5015474;28;20393;-80
2023/01/09 13:29:15;;;;;;;8.52;0.20;;;8.90;99.90;;;;;;5016066;28;20022;-80
2023/01/09 13:31:47;;;;;;;10.40;0.77;;;;;;;;;;5017712;28;20389;-80
2023/01/09 13:34:17;;;;;;;5.22;0.45;;;8.80;99.90;;;;;;5016495;28;20556;-79
2023/01/09 13:36:53;;;;;;;9.38;0.38;;;8.60;99.90;;;;;;5013336;28;20037;-79